Time;durP1;ratioP1;P1;durP2;ratioP2;P2;SDS_P1;SDS_P2;PMS_P1;PMS_P2;Temp;Humidity;BMP_temperature;BMP_pressure;BME280_temperature;BME280_humidity;BME280_pressure;Samples;Min_cycle;Max_cycle;Signal;HPM_P1;HPM_P2
2022/10/22 00:01:27;;;;;;;29.67;24.98;;;17.50;96.70;;;;;;5007930;28;20506;-87
2022/10/22 00:03:53;;;;;;;27.02;24.77;;;17.50;96.70;;;;;;5011241;28;20033;-88
2022/10/22 00:06:19;;;;;;;27.10;24.85;;;17.40;96.90;;;;;;5009968;28;20045;-86
2022/10/22 00:08:45;;;;;;;29.42;27.10;;;17.50;97.00;;;;;;5011811;28;20057;-87
2022/10/22 00:11:13;;;;;;;30.42;27.60;;;17.50;97.10;;;;;;5010100;28;20030;-86
2022/10/22 00:13:39;;;;;;;30.58;27.65;;;17.40;97.10;;;;;;5005734;28;20414;-86
2022/10/22 00:16:06;;;;;;;31.88;29.10;;;17.40;97.40;;;;;;5008256;28;20041;-87
2022/10/22 00:18:32;;;;;;;33.67;30.30;;;17.40;97.30;;;;;;4998169;28;20046;-87
2022/10/22 00:20:58;;;;;;;32.67;29.58;;;17.40;97.30;;;;;;4992907;28;20030;-86
2022/10/22 00:23:24;;;;;;;31.85;29.20;;;17.40;97.20;;;;;;4985760;28;20053;-86
2022/10/22 00:25:52;;;;;;;32.38;29.77;;;17.40;97.40;;;;;;4995239;28;20035;-87
2022/10/22 00:28:18;;;;;;;31.77;29.42;;;17.40;97.40;;;;;;5012143;28;20042;-87
2022/10/22 00:30:44;;;;;;;35.60;32.60;;;17.40;97.60;;;;;;5002179;28;20041;-86
2022/10/22 00:33:10;;;;;;;32.78;29.92;;;17.40;97.40;;;;;;5008320;28;20034;-87
2022/10/22 00:35:36;;;;;;;33.63;30.80;;;17.40;97.60;;;;;;4991133;28;20053;-86
2022/10/22 00:38:02;;;;;;;31.00;28.10;;;17.40;97.60;;;;;;4991729;28;20034;-87
2022/10/22 00:40:28;;;;;;;33.10;29.73;;;17.30;97.90;;;;;;5007505;28;20042;-86
2022/10/22 00:42:54;;;;;;;32.85;30.08;;;17.40;97.80;;;;;;4992442;28;20038;-87
2022/10/22 00:45:22;;;;;;;32.85;29.77;;;17.40;97.70;;;;;;4996458;28;20403;-87
2022/10/22 00:47:49;;;;;;;32.85;29.48;;;17.40;97.80;;;;;;5010310;28;20087;-87
2022/10/22 00:50:25;;;;;;;28.95;26.33;;;17.40;97.80;;;;;;5000632;28;20038;-86
2022/10/22 00:52:52;;;;;;;29.73;27.10;;;17.30;98.00;;;;;;4983980;28;20042;-86
2022/10/22 00:55:18;;;;;;;29.33;27.00;;;17.40;97.90;;;;;;4991613;28;20038;-86
2022/10/22 00:57:44;;;;;;;30.30;27.65;;;17.40;97.80;;;;;;4995970;28;20046;-87
2022/10/22 01:00:11;;;;;;;27.65;25.85;;;17.40;97.80;;;;;;5008872;28;20042;-86
2022/10/22 01:02:37;;;;;;;27.83;25.10;;;17.50;97.80;;;;;;4974452;28;20494;-86
2022/10/22 01:05:03;;;;;;;29.55;26.75;;;17.40;98.00;;;;;;4965305;28;20031;-87
2022/10/22 01:07:29;;;;;;;28.20;25.38;;;17.40;98.00;;;;;;4958677;28;20043;-86
2022/10/22 01:10:13;;;;;;;27.92;25.45;;;17.40;97.90;;;;;;4974940;28;20042;-87
2022/10/22 01:12:44;;;;;;;26.60;24.20;;;17.40;98.00;;;;;;4985218;28;20542;-87
2022/10/22 01:15:29;;;;;;;;;;;17.40;97.90;;;;;;4990461;28;20042;-85
2022/10/22 01:17:59;;;;;;;23.55;21.58;;;17.50;97.90;;;;;;4975504;28;19929;-87
2022/10/22 01:20:59;;;;;;;24.52;21.55;;;17.40;97.70;;;;;;4984053;28;20034;-87
2022/10/22 01:23:47;;;;;;;23.55;21.33;;;17.40;98.10;;;;;;4971729;28;20039;-86
2022/10/22 01:26:34;;;;;;;21.80;20.02;;;17.40;98.00;;;;;;4972838;28;20027;-86
2022/10/22 01:29:05;;;;;;;22.90;20.75;;;17.30;98.20;;;;;;4977668;28;20070;-86
2022/10/22 01:31:39;;;;;;;22.57;20.10;;;17.30;98.20;;;;;;4988347;28;20381;-86
2022/10/22 01:34:05;;;;;;;21.63;19.40;;;17.30;98.20;;;;;;4962001;28;20038;-87
2022/10/22 01:36:31;;;;;;;22.10;19.92;;;17.30;98.20;;;;;;4971400;28;20035;-86
2022/10/22 01:38:58;;;;;;;22.15;20.02;;;17.20;98.30;;;;;;4972108;28;20039;-87
2022/10/22 01:41:25;;;;;;;22.33;20.20;;;17.20;98.30;;;;;;4955749;28;20031;-87
2022/10/22 01:43:51;;;;;;;22.55;20.17;;;17.20;98.30;;;;;;4971218;28;20404;-86
2022/10/22 01:46:17;;;;;;;21.52;19.38;;;17.30;98.50;;;;;;4985855;28;20031;-86
2022/10/22 01:49:26;;;;;;;21.48;19.33;;;17.20;98.50;;;;;;4975261;28;20038;-87
2022/10/22 01:52:08;;;;;;;20.10;17.92;;;17.20;98.50;;;;;;4958188;28;20048;-86
2022/10/22 01:54:50;;;;;;;21.88;19.67;;;17.20;98.50;;;;;;4973040;28;20034;-87
2022/10/22 01:57:16;;;;;;;22.30;19.25;;;17.20;98.40;;;;;;4976252;28;20552;-87
2022/10/22 02:00:05;;;;;;;22.63;20.42;;;17.10;98.40;;;;;;4989096;28;20038;-87
2022/10/22 02:02:46;;;;;;;22.38;20.13;;;17.10;98.40;;;;;;4979862;28;20035;-86
2022/10/22 02:05:12;;;;;;;;;;;17.10;98.50;;;;;;4974934;28;20069;-87
2022/10/22 02:07:44;;;;;;;25.90;18.48;;;17.10;98.60;;;;;;4970987;28;20031;-88
2022/10/22 02:10:10;;;;;;;22.00;20.05;;;17.10;98.50;;;;;;4957248;28;20050;-87
2022/10/22 02:12:36;;;;;;;23.58;21.25;;;17.10;98.70;;;;;;4977953;28;20046;-88
2022/10/22 02:15:03;;;;;;;22.40;20.30;;;17.10;98.70;;;;;;4970286;28;20038;-85
2022/10/22 02:17:30;;;;;;;23.40;21.02;;;17.00;98.70;;;;;;4975905;28;20031;-87
2022/10/22 02:20:00;;;;;;;24.95;22.42;;;16.90;99.30;;;;;;4987764;28;20427;-87
2022/10/22 02:22:26;;;;;;;26.92;24.48;;;16.90;99.20;;;;;;4976068;28;20042;-87
2022/10/22 02:24:52;;;;;;;26.50;23.42;;;16.90;99.30;;;;;;4990180;28;20507;-88
2022/10/22 02:27:31;;;;;;;29.98;27.10;;;16.90;99.50;;;;;;4992187;28;20035;-86
2022/10/22 02:30:04;;;;;;;30.23;27.50;;;16.80;99.50;;;;;;5009133;28;20026;-86
2022/10/22 02:32:50;;;;;;;29.83;26.77;;;16.80;99.80;;;;;;4990986;28;20042;-87
2022/10/22 02:35:19;;;;;;;28.20;26.00;;;16.80;99.80;;;;;;4999050;28;20031;-87
2022/10/22 02:37:45;;;;;;;31.52;28.80;;;16.80;99.40;;;;;;4978428;28;20026;-87
2022/10/22 02:40:11;;;;;;;26.90;24.40;;;16.90;99.60;;;;;;4983984;28;20053;-87
2022/10/22 02:42:37;;;;;;;30.45;27.48;;;16.80;99.50;;;;;;4994919;28;20023;-86
2022/10/22 02:45:04;;;;;;;29.40;27.15;;;16.90;99.60;;;;;;4986209;28;20049;-87
2022/10/22 02:47:30;;;;;;;29.33;26.92;;;16.90;99.60;;;;;;4989830;28;20042;-86
2022/10/22 02:49:56;;;;;;;29.40;27.02;;;16.90;99.30;;;;;;4999590;28;20122;-86
2022/10/22 02:52:22;;;;;;;32.08;29.08;;;16.90;99.60;;;;;;4992728;28;20034;-86
2022/10/22 02:54:48;;;;;;;30.15;27.05;;;16.90;99.70;;;;;;4977730;28;20061;-87
2022/10/22 02:57:14;;;;;;;33.53;30.38;;;16.80;99.80;;;;;;4997520;28;20034;-87
2022/10/22 02:59:40;;;;;;;29.35;26.73;;;16.90;99.70;;;;;;4977903;28;20053;-87
2022/10/22 03:02:07;;;;;;;27.58;25.25;;;16.90;99.50;;;;;;5012960;28;20049;-88
2022/10/22 03:04:33;;;;;;;27.77;25.10;;;16.90;99.80;;;;;;5004420;28;20027;-86
2022/10/22 03:06:59;;;;;;;29.08;26.33;;;16.90;99.60;;;;;;4993619;28;20042;-87
2022/10/22 03:09:25;;;;;;;25.58;22.67;;;16.80;99.70;;;;;;5027798;28;20052;-87
2022/10/22 03:11:51;;;;;;;27.60;24.92;;;16.80;99.50;;;;;;5013041;28;20030;-86
2022/10/22 03:14:18;;;;;;;24.27;21.55;;;16.80;99.50;;;;;;5012626;28;20033;-87
2022/10/22 03:16:44;;;;;;;23.60;21.52;;;16.80;99.50;;;;;;4990098;28;20034;-85
2022/10/22 03:19:10;;;;;;;22.23;20.15;;;16.80;99.60;;;;;;4981773;28;20049;-87
2022/10/22 03:21:38;;;;;;;23.83;21.48;;;16.80;99.40;;;;;;4996052;28;20050;-86
2022/10/22 03:24:10;;;;;;;21.27;19.27;;;16.70;99.70;;;;;;4997436;28;20598;-88
2022/10/22 03:26:37;;;;;;;22.20;20.27;;;16.70;99.80;;;;;;4993279;28;20042;-87
2022/10/22 03:29:03;;;;;;;19.88;18.15;;;16.70;99.40;;;;;;5008656;28;20046;-88
2022/10/22 03:31:29;;;;;;;25.83;17.75;;;16.60;99.90;;;;;;5011822;28;20034;-86
2022/10/22 03:33:55;;;;;;;18.88;17.15;;;16.60;99.90;;;;;;4991026;28;20041;-88
2022/10/22 03:36:21;;;;;;;22.42;17.38;;;16.50;99.70;;;;;;5016893;28;20045;-87
2022/10/22 03:38:47;;;;;;;18.88;16.77;;;16.50;99.90;;;;;;4994181;28;20042;-87
2022/10/22 03:41:13;;;;;;;17.52;15.82;;;16.50;99.60;;;;;;5004741;28;20031;-87
2022/10/22 03:43:40;;;;;;;20.02;16.00;;;16.50;99.50;;;;;;5003319;28;20046;-86
2022/10/22 03:46:06;;;;;;;18.45;16.50;;;16.50;99.30;;;;;;5009968;28;20402;-86
2022/10/22 03:48:32;;;;;;;19.30;16.73;;;16.40;99.90;;;;;;5011836;28;20073;-86
2022/10/22 03:50:58;;;;;;;18.35;15.77;;;16.40;99.80;;;;;;5011756;28;20040;-86
2022/10/22 03:53:24;;;;;;;18.35;16.33;;;16.30;99.60;;;;;;5003078;28;20430;-88
2022/10/22 03:55:50;;;;;;;20.75;16.35;;;16.40;99.80;;;;;;4992626;28;20030;-86
2022/10/22 03:58:16;;;;;;;18.55;16.67;;;16.30;99.70;;;;;;5011137;28;20041;-86
2022/10/22 04:00:42;;;;;;;17.42;15.80;;;16.30;99.50;;;;;;4981527;28;20034;-86
2022/10/22 04:03:08;;;;;;;18.35;15.30;;;16.20;99.90;;;;;;5012628;28;20033;-87
2022/10/22 04:05:34;;;;;;;16.73;15.35;;;16.30;99.50;;;;;;4994893;28;20491;-87
2022/10/22 04:08:00;;;;;;;18.77;16.90;;;16.20;99.50;;;;;;4996237;28;20046;-89
2022/10/22 04:10:27;;;;;;;21.52;17.40;;;16.00;99.90;;;;;;5013442;28;20382;-90
2022/10/22 04:12:53;;;;;;;18.23;16.33;;;16.00;99.90;;;;;;5010493;28;20033;-89
2022/10/22 04:15:19;;;;;;;21.20;17.08;;;16.00;99.80;;;;;;4995938;28;20030;-88
2022/10/22 04:17:45;;;;;;;26.13;16.52;;;16.00;99.90;;;;;;4995234;28;20030;-90
2022/10/22 04:20:11;;;;;;;20.38;16.17;;;15.90;99.90;;;;;;5004906;28;20419;-91
2022/10/22 04:22:37;;;;;;;17.85;16.15;;;15.90;99.90;;;;;;5011016;28;20045;-89
2022/10/22 04:25:04;;;;;;;17.65;15.82;;;15.70;99.90;;;;;;5012870;28;20049;-89
2022/10/22 04:27:31;;;;;;;18.05;16.25;;;15.70;99.90;;;;;;4995460;28;20038;-91
2022/10/22 04:29:57;;;;;;;17.48;15.40;;;15.70;99.90;;;;;;5010673;28;20042;-90
2022/10/22 04:32:25;;;;;;;16.98;15.15;;;15.60;99.90;;;;;;4993710;28;20375;-87
2022/10/22 04:34:51;;;;;;;16.65;14.98;;;15.70;99.90;;;;;;4992892;28;20060;-90
2022/10/22 04:37:17;;;;;;;17.73;16.05;;;15.80;99.90;;;;;;4992708;28;20049;-90
2022/10/22 04:39:43;;;;;;;18.45;16.65;;;15.80;99.90;;;;;;4993590;28;20058;-89
2022/10/22 04:42:09;;;;;;;18.63;17.00;;;15.90;99.90;;;;;;4984036;28;20050;-90
2022/10/22 04:44:35;;;;;;;19.17;17.10;;;15.80;99.80;;;;;;4999758;28;20042;-95
2022/10/22 04:47:02;;;;;;;21.58;17.38;;;15.80;99.90;;;;;;4994059;28;20039;-93
2022/10/22 04:49:28;;;;;;;24.92;16.55;;;15.60;99.90;;;;;;4999977;28;20038;-94
2022/10/22 04:51:54;;;;;;;19.83;17.80;;;15.50;99.90;;;;;;5019536;28;20049;-92
2022/10/22 04:54:20;;;;;;;19.65;17.73;;;15.30;99.90;;;;;;5017397;28;20040;-91
2022/10/22 04:56:46;;;;;;;18.95;17.23;;;15.30;99.90;;;;;;4981241;28;20023;-90
2022/10/22 04:59:12;;;;;;;19.92;17.92;;;15.40;99.90;;;;;;4977084;28;20041;-91
2022/10/22 05:01:40;;;;;;;20.60;18.42;;;15.40;99.90;;;;;;5004677;28;20026;-94
2022/10/22 05:04:07;;;;;;;20.05;18.15;;;15.50;99.90;;;;;;4984412;28;20038;-92
2022/10/22 05:06:34;;;;;;;18.45;16.52;;;15.60;99.90;;;;;;4977401;28;20479;-91
2022/10/22 05:09:03;;;;;;;20.13;14.40;;;15.70;99.90;;;;;;4990444;28;20058;-92
2022/10/22 05:11:32;;;;;;;18.35;16.63;;;15.60;99.90;;;;;;4980466;28;20037;-92
2022/10/22 05:13:59;;;;;;;19.85;17.90;;;15.60;99.90;;;;;;4988969;28;20047;-93
2022/10/22 05:16:27;;;;;;;19.15;16.80;;;15.60;99.90;;;;;;5302476;23;20043;-93
2022/10/22 05:18:53;;;;;;;18.63;16.80;;;15.30;99.90;;;;;;5097674;23;20023;-91
2022/10/22 05:21:19;;;;;;;18.63;17.02;;;15.10;99.90;;;;;;4992838;28;20038;-90
2022/10/22 05:23:47;;;;;;;19.80;17.90;;;15.00;99.90;;;;;;4992751;28;20030;-90
2022/10/22 05:26:15;;;;;;;21.55;19.55;;;14.90;99.90;;;;;;4992430;28;20026;-90
2022/10/22 05:28:41;;;;;;;20.27;17.23;;;14.90;99.90;;;;;;4992181;28;20042;-89
2022/10/22 05:31:07;;;;;;;21.80;19.48;;;14.80;99.90;;;;;;5003029;28;20034;-91
2022/10/22 05:33:33;;;;;;;22.95;20.98;;;14.90;99.90;;;;;;4975026;28;20039;-90
2022/10/22 05:36:00;;;;;;;24.38;22.13;;;14.90;99.90;;;;;;4960929;28;20027;-90
2022/10/22 05:38:26;;;;;;;22.90;21.02;;;14.90;99.90;;;;;;4961072;28;20412;-90
2022/10/22 05:41:12;;;;;;;21.75;19.65;;;15.00;99.90;;;;;;4959917;28;20043;-89
2022/10/22 05:43:38;;;;;;;21.42;19.80;;;15.10;99.90;;;;;;4977352;28;20046;-89
2022/10/22 05:46:07;;;;;;;22.15;20.40;;;15.00;99.90;;;;;;4977856;28;20396;-91
2022/10/22 05:48:33;;;;;;;22.60;20.70;;;15.10;99.90;;;;;;4960857;28;20042;-91
2022/10/22 05:51:07;;;;;;;24.58;22.13;;;14.90;99.90;;;;;;4959961;28;20042;-90
2022/10/22 05:53:33;;;;;;;23.48;21.35;;;14.80;99.90;;;;;;4961361;28;20050;-91
2022/10/22 05:56:00;;;;;;;25.30;22.95;;;14.80;99.90;;;;;;4993618;28;20030;-91
2022/10/22 05:58:26;;;;;;;25.35;22.85;;;14.80;99.90;;;;;;4977245;28;20043;-91
2022/10/22 06:00:52;;;;;;;25.85;23.35;;;14.80;99.90;;;;;;4985477;28;20384;-91
2022/10/22 06:03:18;;;;;;;26.98;24.02;;;14.80;99.90;;;;;;5007091;28;20038;-90
2022/10/22 06:05:45;;;;;;;27.63;25.40;;;14.90;99.90;;;;;;4996882;28;20031;-90
2022/10/22 06:08:11;;;;;;;26.52;24.08;;;15.00;99.90;;;;;;4980251;28;20038;-88
2022/10/22 06:10:38;;;;;;;24.77;22.60;;;14.80;99.90;;;;;;4999203;28;20064;-89
2022/10/22 06:13:06;;;;;;;26.48;24.13;;;14.70;99.90;;;;;;4995518;28;20038;-88
2022/10/22 06:15:33;;;;;;;28.02;25.88;;;14.60;99.90;;;;;;4960023;28;20053;-84
2022/10/22 06:17:59;;;;;;;24.40;22.35;;;14.80;99.90;;;;;;4965526;28;20049;-89
2022/10/22 06:20:25;;;;;;;23.98;21.27;;;15.00;99.90;;;;;;4971435;28;20039;-90
2022/10/22 06:22:51;;;;;;;21.85;19.95;;;15.00;99.90;;;;;;4976922;28;20047;-88
2022/10/22 06:25:17;;;;;;;22.42;20.05;;;14.90;99.90;;;;;;4981717;28;20503;-92
2022/10/22 06:27:50;;;;;;;22.27;19.95;;;14.90;99.90;;;;;;5000443;28;20037;-92
2022/10/22 06:30:16;;;;;;;22.05;19.98;;;14.80;99.90;;;;;;5000961;28;20057;-91
2022/10/22 06:32:42;;;;;;;21.75;19.58;;;14.70;99.90;;;;;;5008681;28;20033;-93
2022/10/22 06:35:08;;;;;;;22.85;20.67;;;14.70;99.90;;;;;;5032708;28;20052;-91
2022/10/22 06:37:34;;;;;;;23.67;21.33;;;14.80;99.90;;;;;;5013314;28;20026;-91
2022/10/22 06:40:01;;;;;;;23.38;21.38;;;14.70;99.90;;;;;;5029499;28;20034;-89
2022/10/22 06:42:27;;;;;;;23.40;21.23;;;14.70;99.90;;;;;;5007684;28;20042;-92
2022/10/22 06:44:53;;;;;;;21.65;19.95;;;14.70;99.90;;;;;;5030794;28;20386;-92
2022/10/22 06:47:20;;;;;;;23.55;21.52;;;14.80;99.90;;;;;;5015395;28;20497;-93
2022/10/22 06:49:47;;;;;;;23.45;21.25;;;14.90;99.90;;;;;;5096757;23;20046;-93
2022/10/22 06:52:13;;;;;;;24.95;22.63;;;14.90;99.90;;;;;;5018494;28;20052;-95
2022/10/22 06:59:51;;;;;;;26.15;23.98;;;15.10;99.90;;;;;;5033003;23;20080;-87
2022/10/22 07:02:17;;;;;;;27.73;25.05;;;15.20;99.90;;;;;;5031921;28;20033;-87
2022/10/22 07:04:43;;;;;;;25.35;22.98;;;15.30;99.90;;;;;;5037754;28;20041;-93
2022/10/22 07:07:09;;;;;;;25.90;23.58;;;15.40;99.90;;;;;;5037323;28;20026;-87
2022/10/22 07:09:35;;;;;;;25.67;22.92;;;15.40;99.90;;;;;;5015747;28;20041;-86
2022/10/22 07:12:01;;;;;;;22.83;20.92;;;15.30;99.90;;;;;;5015611;28;20060;-87
2022/10/22 07:14:28;;;;;;;21.77;19.75;;;15.30;99.90;;;;;;5033643;28;20037;-88
2022/10/22 07:16:54;;;;;;;23.55;21.55;;;15.30;99.90;;;;;;5016342;28;20025;-88
2022/10/22 07:19:20;;;;;;;26.05;23.67;;;15.40;99.90;;;;;;5034373;28;20033;-87
2022/10/22 07:21:46;;;;;;;25.73;23.45;;;15.30;99.90;;;;;;5032210;28;20021;-87
2022/10/22 07:24:12;;;;;;;23.30;21.13;;;15.40;99.90;;;;;;5015905;28;20390;-85
2022/10/22 07:26:38;;;;;;;24.08;21.80;;;15.50;99.90;;;;;;5015983;28;20044;-86
2022/10/22 07:29:04;;;;;;;22.58;20.27;;;15.60;99.90;;;;;;5031240;28;20054;-86
2022/10/22 07:31:30;;;;;;;21.73;19.98;;;15.70;99.90;;;;;;5016115;28;20033;-86
2022/10/22 07:33:57;;;;;;;23.27;21.25;;;15.90;99.90;;;;;;5032705;28;20028;-86
2022/10/22 07:36:23;;;;;;;22.75;19.73;;;15.70;99.90;;;;;;5033928;28;20029;-87
2022/10/22 07:38:53;;;;;;;23.85;21.42;;;15.70;99.90;;;;;;5033910;28;20044;-87
2022/10/22 07:41:19;;;;;;;22.08;20.13;;;15.70;99.90;;;;;;5016556;28;20029;-87
2022/10/22 07:43:45;;;;;;;22.90;20.48;;;15.60;99.90;;;;;;5031830;28;20029;-87
2022/10/22 07:46:11;;;;;;;24.98;19.95;;;15.60;99.90;;;;;;5048187;28;20037;-86
2022/10/22 07:48:38;;;;;;;23.02;20.98;;;15.70;99.90;;;;;;5048512;28;20040;-86
2022/10/22 07:51:04;;;;;;;21.55;19.52;;;15.80;99.90;;;;;;5032531;28;20045;-87
2022/10/22 07:53:30;;;;;;;22.98;20.77;;;15.70;99.90;;;;;;5015961;28;20501;-87
2022/10/22 07:55:57;;;;;;;22.20;20.35;;;15.70;99.90;;;;;;5032293;28;20184;-87
2022/10/22 07:58:23;;;;;;;27.02;20.80;;;15.70;99.90;;;;;;4998307;28;20038;-87
2022/10/22 08:00:50;;;;;;;23.63;19.05;;;15.80;99.90;;;;;;5015445;28;20038;-87
2022/10/22 08:03:16;;;;;;;21.65;19.50;;;15.90;99.90;;;;;;5032200;28;20021;-86
2022/10/22 08:05:43;;;;;;;19.90;17.80;;;15.80;99.90;;;;;;5032288;28;20037;-87
2022/10/22 08:08:10;;;;;;;21.65;19.48;;;15.80;99.90;;;;;;5032111;28;20029;-87
2022/10/22 08:10:36;;;;;;;21.02;18.95;;;15.80;99.90;;;;;;5015397;28;20049;-86
2022/10/22 08:13:02;;;;;;;20.30;18.42;;;15.90;99.90;;;;;;5031747;28;20045;-87
2022/10/22 08:15:29;;;;;;;21.15;18.83;;;15.90;99.90;;;;;;5031448;28;20037;-87
2022/10/22 08:17:55;;;;;;;21.00;18.77;;;15.90;99.90;;;;;;5032046;28;20026;-87
2022/10/22 08:20:21;;;;;;;21.42;19.63;;;15.90;99.90;;;;;;5015008;28;20060;-86
2022/10/22 08:22:47;;;;;;;26.77;18.80;;;15.90;99.90;;;;;;5015484;28;20493;-87
2022/10/22 08:25:14;;;;;;;20.85;18.75;;;15.90;99.90;;;;;;5031815;28;20026;-87
2022/10/22 08:27:40;;;;;;;20.70;18.67;;;15.90;99.90;;;;;;5031747;28;20033;-87
2022/10/22 08:30:06;;;;;;;20.80;18.42;;;16.00;99.90;;;;;;5030725;28;20049;-87
2022/10/22 08:32:33;;;;;;;22.50;18.73;;;16.20;99.90;;;;;;5031119;28;20029;-87
2022/10/22 08:34:59;;;;;;;21.10;19.25;;;16.30;99.90;;;;;;5014709;28;20044;-87
2022/10/22 08:37:25;;;;;;;21.33;19.05;;;16.20;99.90;;;;;;5031608;28;20029;-87
2022/10/22 08:39:51;;;;;;;21.30;19.20;;;16.20;99.90;;;;;;5031838;28;20402;-86
2022/10/22 08:42:26;;;;;;;23.00;19.52;;;16.40;99.90;;;;;;5031157;28;20036;-87
2022/10/22 08:45:08;;;;;;;20.60;18.70;;;16.60;99.90;;;;;;5031169;28;20763;-87
2022/10/22 08:47:58;;;;;;;18.45;16.00;;;16.80;99.90;;;;;;5047090;28;20493;-87
2022/10/22 08:50:34;;;;;;;20.92;18.92;;;17.00;99.90;;;;;;5032672;28;20037;-88
2022/10/22 08:53:02;;;;;;;20.50;18.58;;;17.30;99.90;;;;;;5031343;28;20044;-87
2022/10/22 08:55:28;;;;;;;23.02;21.08;;;17.50;99.90;;;;;;5031171;28;20029;-87
2022/10/22 08:58:19;;;;;;;27.35;25.02;;;17.70;99.90;;;;;;5030823;28;20367;-88
2022/10/22 09:00:59;;;;;;;29.63;26.63;;;17.90;99.90;;;;;;4971036;28;20034;-87
2022/10/22 09:03:43;;;;;;;23.42;21.17;;;18.00;99.90;;;;;;4971362;28;20195;-88
2022/10/22 09:06:15;;;;;;;21.70;19.42;;;18.10;99.90;;;;;;4971499;28;20043;-86
2022/10/22 09:08:42;;;;;;;22.17;20.08;;;18.20;99.90;;;;;;4971590;28;20031;-87
2022/10/22 09:11:22;;;;;;;21.67;19.80;;;18.30;99.90;;;;;;4971327;28;20034;-87
2022/10/22 09:13:48;;;;;;;21.48;19.67;;;18.40;99.90;;;;;;4971741;28;20037;-87
2022/10/22 09:16:16;;;;;;;22.05;20.02;;;18.50;99.90;;;;;;4970944;28;20042;-87
2022/10/22 09:19:33;;;;;;;18.88;16.95;;;18.60;99.90;;;;;;4971554;28;20425;-88
2022/10/22 09:22:39;;;;;;;19.02;16.67;;;18.70;99.80;;;;;;4951982;29;20361;-87
2022/10/22 09:25:26;;;;;;;20.05;18.05;;;18.80;99.70;;;;;;4898169;29;20063;-87
2022/10/22 09:27:57;;;;;;;17.63;15.13;;;18.90;99.50;;;;;;4898082;29;20501;-85
2022/10/22 09:30:25;;;;;;;17.50;15.55;;;19.00;99.00;;;;;;4898390;29;20044;-87
2022/10/22 09:33:11;;;;;;;17.08;15.48;;;19.10;99.10;;;;;;4882513;29;20502;-87
2022/10/22 09:35:54;;;;;;;17.08;15.43;;;19.10;99.00;;;;;;4881594;29;20085;-87
2022/10/22 09:38:28;;;;;;;20.67;18.58;;;19.30;98.90;;;;;;4919762;29;20055;-88
2022/10/22 09:40:55;;;;;;;18.52;16.85;;;19.40;98.00;;;;;;4913392;29;20123;-87
2022/10/22 09:43:21;;;;;;;19.95;18.35;;;19.40;98.50;;;;;;4913933;29;20028;-88
2022/10/22 09:45:48;;;;;;;17.80;16.20;;;19.50;97.70;;;;;;4913424;29;20036;-87
2022/10/22 09:48:14;;;;;;;18.20;16.35;;;19.60;97.50;;;;;;4926807;29;20040;-87
2022/10/22 09:50:43;;;;;;;18.42;16.75;;;19.70;97.50;;;;;;4913698;29;20055;-87
2022/10/22 09:53:13;;;;;;;20.85;18.67;;;19.80;98.00;;;;;;4938006;29;20043;-87
2022/10/22 09:55:40;;;;;;;18.77;17.50;;;19.90;97.50;;;;;;4951612;29;20042;-87
2022/10/22 09:58:12;;;;;;;22.50;20.45;;;20.00;96.90;;;;;;4957682;28;20408;-87
2022/10/22 10:00:39;;;;;;;22.50;20.77;;;20.00;96.00;;;;;;4994316;28;20029;-87
2022/10/22 10:03:05;;;;;;;25.13;23.05;;;19.90;95.80;;;;;;4994912;28;20030;-87
2022/10/22 10:05:33;;;;;;;24.45;22.60;;;19.80;94.80;;;;;;4994723;28;20033;-86
2022/10/22 10:08:11;;;;;;;28.10;26.30;;;19.80;95.00;;;;;;5011029;28;20014;-87
2022/10/22 10:10:47;;;;;;;24.45;22.65;;;19.80;94.50;;;;;;4994805;28;20038;-87
2022/10/22 10:13:44;;;;;;;28.02;25.95;;;19.80;95.30;;;;;;5010975;28;20033;-86
2022/10/22 10:16:26;;;;;;;27.83;25.75;;;19.80;94.50;;;;;;5012766;28;20034;-87
2022/10/22 10:19:15;;;;;;;26.33;24.33;;;19.90;95.20;;;;;;5015601;28;20033;-87
2022/10/22 10:22:09;;;;;;;25.95;23.73;;;20.00;94.80;;;;;;4974298;28;20042;-86
2022/10/22 10:24:46;;;;;;;27.60;25.20;;;20.00;95.10;;;;;;4941897;28;20038;-87
2022/10/22 10:27:26;;;;;;;25.65;23.92;;;20.10;94.80;;;;;;4974417;28;20038;-87
2022/10/22 10:29:52;;;;;;;27.60;25.30;;;20.10;94.70;;;;;;4973781;28;20520;-85
2022/10/22 10:32:48;;;;;;;26.33;24.38;;;20.10;94.20;;;;;;4973734;28;20031;-87
2022/10/22 10:35:29;;;;;;;28.25;26.50;;;20.20;94.70;;;;;;4992876;28;20530;-87
2022/10/22 10:38:04;;;;;;;30.02;27.55;;;20.20;94.60;;;;;;4992966;28;20038;-87
2022/10/22 10:40:51;;;;;;;33.20;31.05;;;20.30;94.10;;;;;;4992981;28;20038;-86
2022/10/22 10:43:28;;;;;;;28.92;26.95;;;20.40;93.90;;;;;;4992826;28;20499;-86
2022/10/22 10:46:06;;;;;;;28.98;26.77;;;20.40;94.30;;;;;;4992910;28;20033;-86
2022/10/22 10:48:41;;;;;;;30.52;28.40;;;20.40;93.20;;;;;;4993201;28;20595;-85
2022/10/22 10:51:38;;;;;;;30.30;27.75;;;20.40;93.60;;;;;;4993229;28;20491;-87
2022/10/22 10:54:04;;;;;;;26.75;24.85;;;20.50;93.20;;;;;;4993106;28;20066;-86
2022/10/22 10:56:59;;;;;;;28.65;26.73;;;20.50;92.90;;;;;;4993073;28;20042;-86
2022/10/22 10:59:46;;;;;;;28.60;26.60;;;20.50;92.90;;;;;;4993137;28;20041;-86
2022/10/22 11:02:42;;;;;;;29.90;27.83;;;20.50;92.00;;;;;;5014354;28;20045;-87
2022/10/22 11:05:14;;;;;;;28.85;26.92;;;20.50;92.30;;;;;;5013623;28;20037;-86
2022/10/22 11:08:22;;;;;;;28.92;27.08;;;20.60;91.90;;;;;;5013242;28;20025;-86
2022/10/22 11:10:58;;;;;;;28.02;25.92;;;20.60;91.60;;;;;;5028951;28;20045;-86
2022/10/22 11:13:28;;;;;;;28.70;26.80;;;20.70;91.60;;;;;;4981633;28;20475;-86
2022/10/22 11:16:35;;;;;;;25.50;23.90;;;20.70;91.70;;;;;;4996585;28;20395;-86
2022/10/22 11:19:10;;;;;;;24.95;23.35;;;20.80;90.70;;;;;;5013520;28;20390;-86
2022/10/22 11:21:46;;;;;;;30.15;28.10;;;20.80;90.70;;;;;;5014161;28;20034;-85
2022/10/22 11:24:29;;;;;;;26.25;23.95;;;20.70;90.20;;;;;;4997824;28;20053;-85
2022/10/22 11:26:59;;;;;;;25.90;23.70;;;20.70;90.90;;;;;;5012691;28;20029;-86
2022/10/22 11:29:38;;;;;;;27.83;25.95;;;20.80;91.00;;;;;;4980907;28;20486;-86
2022/10/22 11:32:05;;;;;;;26.38;24.77;;;20.90;90.90;;;;;;5012763;28;20486;-86
2022/10/22 11:34:44;;;;;;;28.13;26.10;;;21.00;90.20;;;;;;5009810;28;20030;-85
2022/10/22 11:37:10;;;;;;;27.40;25.60;;;21.00;89.80;;;;;;5017146;28;20464;-85
2022/10/22 11:39:56;;;;;;;28.52;26.55;;;21.00;90.00;;;;;;5032762;28;20045;-85
2022/10/22 11:42:30;;;;;;;30.67;28.33;;;21.00;90.60;;;;;;5032973;28;20025;-86
2022/10/22 11:45:01;;;;;;;32.05;29.65;;;21.10;90.60;;;;;;5032520;28;20025;-85
2022/10/22 11:47:30;;;;;;;28.90;27.02;;;21.10;90.50;;;;;;5048088;28;20029;-86
2022/10/22 11:50:01;;;;;;;31.00;29.20;;;21.20;90.00;;;;;;5048653;28;20048;-86
2022/10/22 11:52:30;;;;;;;30.08;28.08;;;21.20;89.50;;;;;;5032370;28;20026;-85
2022/10/22 11:54:57;;;;;;;31.98;30.00;;;21.30;87.90;;;;;;5032173;28;20040;-85
2022/10/22 11:57:28;;;;;;;29.67;27.70;;;21.40;87.70;;;;;;5032294;28;20022;-86
2022/10/22 11:59:58;;;;;;;31.60;29.60;;;21.40;86.40;;;;;;5015441;28;20044;-85
2022/10/22 12:02:28;;;;;;;31.00;29.23;;;21.50;86.50;;;;;;5031841;28;20486;-85
2022/10/22 12:04:54;;;;;;;34.50;32.47;;;21.50;85.50;;;;;;5033067;28;20040;-85
2022/10/22 12:07:46;;;;;;;30.67;28.85;;;21.50;85.30;;;;;;5032077;28;20030;-85
2022/10/22 12:10:20;;;;;;;35.83;33.50;;;21.60;86.60;;;;;;5026288;28;20056;-85
2022/10/22 12:12:54;;;;;;;32.75;30.65;;;21.60;84.60;;;;;;5032159;28;20474;-85
2022/10/22 12:15:25;;;;;;;34.15;32.05;;;21.60;85.00;;;;;;5031722;28;20045;-85
2022/10/22 12:17:59;;;;;;;35.35;33.25;;;21.60;84.30;;;;;;5033331;28;20474;-85
2022/10/22 12:20:25;;;;;;;38.33;36.03;;;21.70;84.80;;;;;;5047441;28;20045;-86
2022/10/22 12:22:51;;;;;;;37.13;35.17;;;21.80;84.40;;;;;;5048475;28;20030;-86
2022/10/22 12:25:21;;;;;;;33.85;31.83;;;21.80;83.50;;;;;;5048497;28;20033;-86
2022/10/22 12:27:50;;;;;;;32.40;30.33;;;21.80;84.10;;;;;;5048487;28;20040;-85
2022/10/22 12:30:22;;;;;;;36.92;34.83;;;21.80;83.00;;;;;;5032393;28;20038;-85
2022/10/22 12:33:00;;;;;;;35.20;33.25;;;21.80;81.70;;;;;;5047868;28;20430;-85
2022/10/22 12:35:28;;;;;;;39.25;37.15;;;21.70;82.60;;;;;;5011562;28;20411;-84
2022/10/22 12:38:07;;;;;;;39.55;37.03;;;21.80;81.00;;;;;;5006262;28;20033;-85
2022/10/22 12:40:34;;;;;;;32.92;31.00;;;21.80;80.40;;;;;;5015806;28;20052;-85
2022/10/22 12:43:06;;;;;;;30.92;29.25;;;21.80;80.90;;;;;;5031662;28;20394;-85
2022/10/22 12:45:32;;;;;;;35.40;33.28;;;21.90;80.50;;;;;;5031704;28;20033;-85
2022/10/22 12:48:03;;;;;;;34.55;32.78;;;22.00;81.70;;;;;;5028115;28;20026;-85
2022/10/22 12:50:46;;;;;;;;;;;21.90;80.50;;;;;;4996183;28;20376;-84